createdAt,value
2019-05-26T00:00:45.417Z,1095.76
2019-05-26T00:01:45.407Z,1095.88
2019-05-26T00:02:45.412Z,1095.95
2019-05-26T00:03:45.404Z,1095.94
2019-05-26T00:04:45.424Z,1096.24
2019-05-26T00:05:45.414Z,1096.24
2019-05-26T00:06:45.399Z,1096.53
2019-05-26T00:07:45.422Z,1096.67
2019-05-26T00:08:45.427Z,1096.72
2019-05-26T00:09:45.518Z,1096.86
2019-05-26T00:10:45.402Z,1096.89
2019-05-26T00:11:45.408Z,1096.92
2019-05-26T00:12:45.425Z,1096.89
2019-05-26T00:13:45.433Z,1097.58
2019-05-26T00:14:45.429Z,1097.64
2019-05-26T00:15:45.742Z,1097.61
2019-05-26T00:16:45.428Z,1097.8
2019-05-26T00:17:45.449Z,1098.03
2019-05-26T00:18:45.432Z,1098.36
2019-05-26T00:19:45.421Z,1098.33
2019-05-26T00:20:45.427Z,1098.25
2019-05-26T00:21:45.440Z,1098.23
2019-05-26T00:22:45.423Z,1098.34
2019-05-26T00:23:45.432Z,1098.13
2019-05-26T00:24:45.455Z,1098.19
2019-05-26T00:25:53.893Z,1098.11
2019-05-26T00:26:45.451Z,1098.01
2019-05-26T00:27:45.581Z,1097.85
2019-05-26T00:28:45.640Z,1097.8
2019-05-26T00:29:45.533Z,1097.52
2019-05-26T00:30:45.465Z,1097.5
2019-05-26T00:31:45.521Z,1097.07
2019-05-26T00:32:45.448Z,1096.98
2019-05-26T00:33:45.474Z,1096.76
2019-05-26T00:34:45.470Z,1096.31
2019-05-26T00:35:45.470Z,1095.98
2019-05-26T00:36:45.472Z,1095.76
2019-05-26T00:37:49.444Z,1095.37
2019-05-26T00:38:45.446Z,1095.13
2019-05-26T00:39:45.450Z,1094.81
2019-05-26T00:40:45.457Z,1094.39
2019-05-26T00:41:45.490Z,1094.2
2019-05-26T00:42:45.538Z,1094.13
2019-05-26T00:43:45.476Z,1093.76
2019-05-26T00:44:45.458Z,1093.63
2019-05-26T00:45:45.474Z,1093.38
2019-05-26T00:46:45.535Z,1093.21
2019-05-26T00:47:45.463Z,1093.29
2019-05-26T00:48:45.493Z,1093.09
2019-05-26T00:49:45.478Z,1092.82
2019-05-26T00:50:45.494Z,1092.27
2019-05-26T00:51:45.470Z,1092.31
2019-05-26T00:52:45.472Z,1092.32
2019-05-26T00:53:45.500Z,1092.09
2019-05-26T00:54:45.485Z,1092.07
2019-05-26T00:55:45.479Z,1091.81
2019-05-26T00:56:45.496Z,1091.81
2019-05-26T00:57:45.481Z,1091.6
2019-05-26T00:58:45.492Z,1091.36
2019-05-26T00:59:45.502Z,1091.48
2019-05-26T01:00:45.483Z,1091.39
2019-05-26T01:01:45.489Z,1091.22
2019-05-26T01:02:45.516Z,1091.07
2019-05-26T01:03:45.521Z,1090.74
2019-05-26T01:04:45.513Z,1090.17
2019-05-26T01:05:45.520Z,1089.95
2019-05-26T01:06:45.520Z,1089.46
2019-05-26T01:07:45.508Z,1089.3
2019-05-26T01:08:45.500Z,1089.01
2019-05-26T01:09:45.520Z,1088.29
2019-05-26T01:10:45.505Z,1087.79
2019-05-26T01:11:45.537Z,1087.17
2019-05-26T01:12:45.508Z,1086.42
2019-05-26T01:13:45.570Z,1085.6
2019-05-26T01:14:45.521Z,1084.77
2019-05-26T01:15:45.518Z,1083.61
2019-05-26T01:16:45.525Z,1083.05
2019-05-26T01:17:45.512Z,1082.93
2019-05-26T01:18:45.546Z,1082.17
2019-05-26T01:19:45.527Z,1082.36
2019-05-26T01:20:45.533Z,1082.45
2019-05-26T01:21:45.519Z,1082.04
2019-05-26T01:22:45.535Z,1081.98
2019-05-26T01:23:45.551Z,1081.83
2019-05-26T01:24:45.543Z,1081.63
2019-05-26T01:25:45.528Z,1081.66
2019-05-26T01:26:45.528Z,1081.74
2019-05-26T01:27:45.559Z,1081.46
2019-05-26T01:28:45.542Z,1080.79
2019-05-26T01:29:45.548Z,1080.52
2019-05-26T01:30:45.861Z,1080.22
2019-05-26T01:31:45.556Z,1079.8
2019-05-26T01:32:45.552Z,1079.73
2019-05-26T01:33:45.536Z,1079.46
2019-05-26T01:34:45.541Z,1079.28
2019-05-26T01:35:45.546Z,1079.02
2019-05-26T01:36:45.581Z,1078.8
2019-05-26T01:37:45.547Z,1078.6
2019-05-26T01:38:45.569Z,1078.63
2019-05-26T01:39:45.555Z,1078.18
2019-05-26T01:40:45.585Z,1077.81
2019-05-26T01:41:45.598Z,1077.73
2019-05-26T01:42:45.553Z,1077.18
2019-05-26T01:43:45.586Z,1076.62
2019-05-26T01:44:45.587Z,1076.18
2019-05-26T01:45:45.559Z,1075.81
2019-05-26T01:46:45.559Z,1075.45
2019-05-26T01:47:45.563Z,1075.09
2019-05-26T01:48:45.572Z,1075.18
2019-05-26T01:49:45.580Z,1075.08
2019-05-26T01:50:45.590Z,1075.06
2019-05-26T01:51:45.571Z,1074.96
2019-05-26T01:52:45.601Z,1074.75
2019-05-26T01:53:45.583Z,1074.34
2019-05-26T01:54:45.573Z,1073.85
2019-05-26T01:55:45.599Z,1073.5
2019-05-26T01:56:45.589Z,1073.29
2019-05-26T01:57:45.581Z,1072.71
2019-05-26T01:58:45.581Z,1072.61
2019-05-26T01:59:45.595Z,1072.44
2019-05-26T02:00:45.607Z,1072.36
2019-05-26T02:01:45.628Z,1071.71
2019-05-26T02:02:45.608Z,1071.53
2019-05-26T02:03:45.623Z,1071.25
2019-05-26T02:04:45.660Z,1070.83
2019-05-26T02:05:45.628Z,1070.36
2019-05-26T02:06:45.636Z,1069.81
2019-05-26T02:07:45.622Z,1069.59
2019-05-26T02:08:45.628Z,1068.72
2019-05-26T02:09:46.047Z,1067.98
2019-05-26T02:10:45.625Z,1067.36
2019-05-26T02:11:45.631Z,1066.94
2019-05-26T02:12:45.611Z,1066.42
2019-05-26T02:13:45.626Z,1066.18
2019-05-26T02:14:45.628Z,1065.84
2019-05-26T02:15:46.024Z,1065.46
2019-05-26T02:16:45.655Z,1065.15
2019-05-26T02:17:45.630Z,1064.72
2019-05-26T02:18:45.633Z,1064.8
2019-05-26T02:19:45.635Z,1064.41
2019-05-26T02:20:45.627Z,1064.11
2019-05-26T02:21:45.640Z,1064.09
2019-05-26T02:22:45.638Z,1064.13
2019-05-26T02:23:45.624Z,1064.24
2019-05-26T02:24:45.630Z,1064.07
2019-05-26T02:25:46.288Z,1063.73
2019-05-26T02:26:45.647Z,1063.71
2019-05-26T02:32:02.503Z,1063.36
2019-05-26T02:32:13.639Z,1061.1
2019-05-26T02:33:13.619Z,1060.84
2019-05-26T02:34:13.622Z,1060.39
2019-05-26T02:35:13.591Z,1059.96
2019-05-26T02:36:13.620Z,1059.51
2019-05-26T02:37:13.656Z,1059.28
2019-05-26T02:38:13.626Z,1058.62
2019-05-26T02:39:13.624Z,1058.06
2019-05-26T02:40:13.614Z,1057.02
2019-05-26T02:41:13.606Z,1055.81
2019-05-26T02:42:13.637Z,1055.34
2019-05-26T02:43:13.631Z,1054.7
2019-05-26T02:44:13.628Z,1054.21
2019-05-26T02:45:13.635Z,1053.52
2019-05-26T02:46:13.642Z,1052.24
2019-05-26T02:47:13.629Z,1051.84
2019-05-26T02:48:13.640Z,1051.26
2019-05-26T02:49:13.619Z,1051.05
2019-05-26T02:50:13.676Z,1050.59
2019-05-26T02:51:13.651Z,1050.37
2019-05-26T02:52:13.618Z,1049.95
2019-05-26T02:53:13.623Z,1049.2
2019-05-26T02:54:13.779Z,1048.56
2019-05-26T02:55:13.637Z,1048.09
2019-05-26T02:56:13.994Z,1047.13
2019-05-26T02:57:13.653Z,1046.37
2019-05-26T02:58:13.670Z,1046.07
2019-05-26T02:59:13.632Z,1045.42
2019-05-26T03:00:13.645Z,1045.23
2019-05-26T03:01:13.686Z,1045.13
2019-05-26T03:02:13.670Z,1044.96
2019-05-26T03:03:13.662Z,1044.2
2019-05-26T03:04:13.649Z,1043.62
2019-05-26T03:05:13.665Z,1043.04
2019-05-26T03:06:13.658Z,1042.12
2019-05-26T03:07:13.666Z,1041.73
2019-05-26T03:08:13.666Z,1041.02
2019-05-26T03:09:22.368Z,1040.55
2019-05-26T03:10:13.682Z,1040.1
2019-05-26T03:11:13.672Z,1039.81
2019-05-26T03:12:13.677Z,1039.2
2019-05-26T03:13:13.678Z,1038.81
2019-05-26T03:14:13.670Z,1038.11
2019-05-26T03:15:13.698Z,1038.01
2019-05-26T03:16:13.775Z,1037.65
2019-05-26T03:17:15.410Z,1037.23
2019-05-26T03:18:13.697Z,1037.4
2019-05-26T03:19:13.693Z,1037.22
2019-05-26T03:20:13.768Z,1037.11
2019-05-26T03:21:13.688Z,1037.07
2019-05-26T03:22:13.690Z,1036.89
2019-05-26T03:23:13.680Z,1036.67
2019-05-26T03:24:13.672Z,1036.2
2019-05-26T03:25:13.706Z,1035.29
2019-05-26T03:26:13.752Z,1034.91
2019-05-26T03:27:13.675Z,1034.4
2019-05-26T03:28:13.695Z,1034.15
2019-05-26T03:29:13.711Z,1033.98
2019-05-26T03:30:13.716Z,1033.17
2019-05-26T03:31:13.708Z,1032.54
2019-05-26T03:32:13.729Z,1032.35
2019-05-26T03:33:13.735Z,1031.67
2019-05-26T03:34:13.700Z,1031.31
2019-05-26T03:35:13.707Z,1030.85
2019-05-26T03:36:13.983Z,1030.31
2019-05-26T03:37:13.724Z,1030.25
2019-05-26T03:38:13.713Z,1030.24
2019-05-26T03:39:13.716Z,1030.33
2019-05-26T03:40:13.708Z,1030.71
2019-05-26T03:41:29.476Z,1030.17
2019-05-26T03:42:29.800Z,1029.93
2019-05-26T03:43:29.489Z,1029.34
2019-05-26T03:44:29.476Z,1029.21
2019-05-26T03:45:29.470Z,1028.85
2019-05-26T03:46:29.592Z,1028.5
2019-05-26T03:47:29.825Z,1028.66
2019-05-26T03:48:29.469Z,1028.74
2019-05-26T03:49:29.492Z,1028.78
2019-05-26T03:50:29.501Z,1028.32
2019-05-26T03:51:29.480Z,1028.42
2019-05-26T03:52:29.476Z,1028.34
2019-05-26T03:53:29.476Z,1028.7
2019-05-26T03:54:29.489Z,1028.85
2019-05-26T03:55:29.506Z,1029.03
2019-05-26T03:56:29.509Z,1029.31
2019-05-26T03:57:29.531Z,1029.23
2019-05-26T03:58:29.499Z,1029.3
2019-05-26T03:59:29.517Z,1029.37
2019-05-26T04:00:29.798Z,1029.21
2019-05-26T04:01:29.498Z,1029.52
2019-05-26T04:02:29.521Z,1029.16
2019-05-26T04:03:29.512Z,1029.49
2019-05-26T04:04:29.583Z,1029.28
2019-05-26T04:05:29.536Z,1028.94
2019-05-26T04:06:30.860Z,1028.84
2019-05-26T04:07:29.521Z,1028.47
2019-05-26T04:08:29.541Z,1028.9
2019-05-26T04:09:29.506Z,1029.31
2019-05-26T04:10:29.535Z,1029.77
2019-05-26T04:11:29.621Z,1030.36
2019-05-26T04:12:29.506Z,1031.29
2019-05-26T04:13:29.513Z,1031.73
2019-05-26T04:14:29.519Z,1032.18
2019-05-26T04:15:29.562Z,1032.39
2019-05-26T04:16:29.519Z,1032.77
2019-05-26T04:17:29.513Z,1032.6
2019-05-26T04:18:29.520Z,1033.61
2019-05-26T04:22:58.758Z,1035.05
2019-05-26T04:23:58.747Z,1035.77
2019-05-26T04:26:20.950Z,1036.47
2019-05-26T04:27:19.455Z,1037.1
2019-05-26T04:28:12.861Z,1037.81
2019-05-26T04:29:12.378Z,1038.53
2019-05-26T04:30:12.365Z,1039.23
2019-05-26T04:31:12.392Z,1040.12
2019-05-26T04:32:12.393Z,1040.15
2019-05-26T04:33:12.388Z,1040.58
2019-05-26T04:34:12.386Z,1041.18
2019-05-26T04:35:12.402Z,1041.57
2019-05-26T04:36:12.362Z,1041.8
2019-05-26T04:37:12.394Z,1042.27
2019-05-26T04:38:12.439Z,1042.4
2019-05-26T04:39:12.382Z,1043.01
2019-05-26T04:40:25.422Z,1043.12
2019-05-26T04:41:12.411Z,1043.69
2019-05-26T04:42:12.427Z,1044.42
2019-05-26T04:43:14.814Z,1044.88
2019-05-26T04:44:12.401Z,1045.22
2019-05-26T04:45:12.398Z,1045.55
2019-05-26T04:46:12.386Z,1045.72
2019-05-26T04:47:12.416Z,1046.08
2019-05-26T04:48:12.400Z,1046.4
2019-05-26T04:49:12.412Z,1046.85
2019-05-26T04:50:12.572Z,1047.39
2019-05-26T04:51:12.401Z,1047.74
2019-05-26T04:52:12.426Z,1048.36
2019-05-26T04:53:12.431Z,1048.84
2019-05-26T04:54:12.423Z,1049.38
2019-05-26T04:55:12.427Z,1049.74
2019-05-26T04:56:12.434Z,1050.49
2019-05-26T04:57:12.428Z,1051.13
2019-05-26T04:58:12.436Z,1051.96
2019-05-26T04:59:12.421Z,1052.47
2019-05-26T05:00:12.411Z,1053.9
2019-05-26T05:01:12.424Z,1054.58
2019-05-26T05:02:12.507Z,1055.47
2019-05-26T05:03:12.407Z,1056.6
2019-05-26T05:04:12.445Z,1057.35
2019-05-26T05:05:12.441Z,1058.4
2019-05-26T05:06:12.449Z,1059.62
2019-05-26T05:07:12.416Z,1060.25
2019-05-26T05:08:12.449Z,1061.05
2019-05-26T05:09:12.449Z,1062.14
2019-05-26T05:10:12.441Z,1063
2019-05-26T05:11:12.430Z,1063.71
2019-05-26T05:12:12.445Z,1064.11
2019-05-26T05:13:12.452Z,1064.73
2019-05-26T05:14:12.465Z,1065.57
2019-05-26T05:15:12.449Z,1066.18
2019-05-26T05:16:12.455Z,1066.81
2019-05-26T05:17:12.439Z,1067.57
2019-05-26T05:18:12.450Z,1067.92
2019-05-26T05:19:12.451Z,1069.29
2019-05-26T05:20:12.458Z,1070.02
2019-05-26T05:21:12.460Z,1071.34
2019-05-26T05:22:12.461Z,1072.16
2019-05-26T05:23:12.710Z,1073.04
2019-05-26T05:24:12.446Z,1074.19
2019-05-26T05:25:14.851Z,1075.42
2019-05-26T05:26:12.785Z,1076.92
2019-05-26T05:27:12.447Z,1077.65
2019-05-26T05:28:12.488Z,1078.79
2019-05-26T05:29:12.480Z,1080.06
2019-05-26T05:30:12.463Z,1080.9
2019-05-26T05:31:12.489Z,1082.05
2019-05-26T05:32:12.455Z,1083.44
2019-05-26T05:33:12.479Z,1084.58
2019-05-26T05:34:12.468Z,1085.31
2019-05-26T05:35:12.480Z,1086.13
2019-05-26T05:36:12.507Z,1086.65
2019-05-26T05:37:12.493Z,1087.2
2019-05-26T05:38:12.482Z,1088.09
2019-05-26T05:39:12.525Z,1089.01
2019-05-26T05:40:12.470Z,1090.05
2019-05-26T05:41:12.493Z,1090.83
2019-05-26T05:42:12.485Z,1091.81
2019-05-26T05:43:12.503Z,1092.79
2019-05-26T05:44:12.497Z,1093.61
2019-05-26T05:45:12.506Z,1094.53
2019-05-26T05:46:12.491Z,1095.41
2019-05-26T05:47:12.514Z,1096.34
2019-05-26T05:48:12.520Z,1097.41
2019-05-26T05:49:12.489Z,1098.28
2019-05-26T05:50:12.516Z,1099.41
2019-05-26T05:51:12.566Z,1100.32
2019-05-26T05:52:12.511Z,1101.07
2019-05-26T05:53:12.511Z,1101.99
2019-05-26T05:54:12.562Z,1102.96
2019-05-26T05:55:12.521Z,1103.6
2019-05-26T05:56:12.519Z,1104.28
2019-05-26T05:57:12.531Z,1105.43
2019-05-26T05:58:12.500Z,1106.29
2019-05-26T05:59:12.589Z,1107.42
2019-05-26T06:00:12.535Z,1108.45
2019-05-26T06:01:13.256Z,1109.34
2019-05-26T06:02:12.524Z,1110.27
2019-05-26T06:03:12.510Z,1110.79
2019-05-26T06:04:12.511Z,1111.63
2019-05-26T06:05:12.527Z,1112.2
2019-05-26T06:06:12.507Z,1113.15
2019-05-26T06:07:12.534Z,1113.83
2019-05-26T06:08:12.546Z,1114.35
2019-05-26T06:09:12.531Z,1115.37
2019-05-26T06:10:12.553Z,1115.68
2019-05-26T06:11:16.302Z,1116.06
2019-05-26T06:12:12.524Z,1116.43
2019-05-26T06:13:12.531Z,1116.98
2019-05-26T06:14:12.559Z,1117.61
2019-05-26T06:15:13.359Z,1118.12
2019-05-26T06:16:16.382Z,1118.84
2019-05-26T06:17:13.262Z,1119.72
2019-05-26T06:18:12.547Z,1120.43
2019-05-26T06:19:12.552Z,1121.14
2019-05-26T06:20:12.558Z,1121.97
2019-05-26T06:21:12.569Z,1122.84
2019-05-26T06:22:12.601Z,1123.72
2019-05-26T06:23:12.577Z,1124.83
2019-05-26T06:24:12.564Z,1126.65
2019-05-26T06:25:12.745Z,1128.55
2019-05-26T06:26:12.578Z,1129.82
2019-05-26T06:27:12.590Z,1130.6
2019-05-26T06:28:12.557Z,1130.99
2019-05-26T06:29:12.867Z,1131.27
2019-05-26T06:30:12.549Z,1131.22
2019-05-26T06:31:12.598Z,1130.83
2019-05-26T06:32:12.753Z,1130.12
2019-05-26T06:33:12.569Z,1129.06
2019-05-26T06:34:12.591Z,1127.91
2019-05-26T06:35:12.597Z,1126.59
2019-05-26T06:36:12.584Z,1125.12
2019-05-26T06:37:12.590Z,1122.79
2019-05-26T06:38:12.583Z,1120.22
2019-05-26T06:39:12.604Z,1117.44
2019-05-26T06:40:12.581Z,1114.79
2019-05-26T06:41:12.587Z,1112.01
2019-05-26T06:42:13.214Z,1109.4
2019-05-26T06:43:12.597Z,1106.16
2019-05-26T06:44:12.599Z,1102.84
2019-05-26T06:45:12.610Z,1100.23
2019-05-26T06:46:12.617Z,1098.89
2019-05-26T06:47:12.599Z,1098.03
2019-05-26T06:48:12.586Z,1097.44
2019-05-26T06:49:12.595Z,1096.14
2019-05-26T06:50:12.681Z,1094.44
2019-05-26T06:51:12.593Z,1092.29
2019-05-26T06:52:12.608Z,1090.97
2019-05-26T06:53:12.614Z,1090.68
2019-05-26T06:54:12.628Z,1092.49
2019-05-26T06:55:12.614Z,1091.64
2019-05-26T06:56:12.612Z,1090.74
2019-05-26T06:57:12.695Z,1089.91
2019-05-26T06:58:12.622Z,1088.45
2019-05-26T06:59:12.607Z,1086.53
2019-05-26T07:00:12.641Z,1090.22
2019-05-26T07:01:12.616Z,1094.4
2019-05-26T07:02:12.647Z,1092.79
2019-05-26T07:03:12.636Z,1090.39
2019-05-26T07:04:12.617Z,1087.4
2019-05-26T07:05:12.625Z,1083.26
2019-05-26T07:06:12.637Z,1079.23
2019-05-26T07:07:12.660Z,1075.98
2019-05-26T07:08:12.664Z,1072.36
2019-05-26T07:09:12.655Z,1068.55
2019-05-26T07:10:12.638Z,1064.65
2019-05-26T07:11:12.622Z,1061.34
2019-05-26T07:12:12.628Z,1059.85
2019-05-26T07:13:12.658Z,1059.24
2019-05-26T07:14:12.626Z,1055.73
2019-05-26T07:15:12.647Z,1053.31
2019-05-26T07:16:12.654Z,1051.76
2019-05-26T07:17:12.667Z,1054.51
2019-05-26T07:18:12.647Z,1058.4
2019-05-26T07:19:12.676Z,1058.83
2019-05-26T07:20:12.666Z,1056.92
2019-05-26T07:21:12.669Z,1055.71
2019-05-26T07:22:12.679Z,1055.31
2019-05-26T07:23:12.735Z,1054.46
2019-05-26T07:24:12.649Z,1054.44
2019-05-26T07:25:12.673Z,1053.98
2019-05-26T07:26:12.661Z,1054.04
2019-05-26T07:27:12.696Z,1054.73
2019-05-26T07:28:12.684Z,1055.58
2019-05-26T07:29:12.683Z,1055.76
2019-05-26T07:30:12.691Z,1055.26
2019-05-26T07:31:12.676Z,1055.14
2019-05-26T07:32:13.025Z,1054.13
2019-05-26T07:33:12.709Z,1053.57
2019-05-26T07:34:12.673Z,1053.85
2019-05-26T07:35:12.708Z,1054.06
2019-05-26T07:36:12.667Z,1054.34
2019-05-26T07:37:12.673Z,1054.96
2019-05-26T07:38:12.680Z,1056
2019-05-26T07:39:12.686Z,1057.29
2019-05-26T07:40:12.696Z,1058.35
2019-05-26T07:41:12.685Z,1059.09
2019-05-26T07:42:12.735Z,1060.09
2019-05-26T07:43:12.879Z,1061.73
2019-05-26T07:44:12.684Z,1062.45
2019-05-26T07:45:12.694Z,1062.24
2019-05-26T07:46:12.700Z,1062.27
2019-05-26T07:47:12.971Z,1061.32
2019-05-26T07:48:20.530Z,1059.81
2019-05-26T07:49:12.693Z,1061.01
2019-05-26T07:50:12.720Z,1065.22
2019-05-26T07:51:12.724Z,1064.78
2019-05-26T07:52:12.707Z,1064.28
2019-05-26T07:53:12.721Z,1063.44
2019-05-26T07:54:24.846Z,1062.68
2019-05-26T07:55:12.732Z,1062.4
2019-05-26T07:56:12.719Z,1061.81
2019-05-26T07:57:12.723Z,1060.88
2019-05-26T07:58:12.729Z,1059.61
2019-05-26T07:59:12.716Z,1059.49
2019-05-26T08:00:12.740Z,1059.41
2019-05-26T08:01:12.786Z,1059.56
2019-05-26T08:02:12.756Z,1058.31
2019-05-26T08:03:12.739Z,1057.41
2019-05-26T08:04:12.748Z,1055.82
2019-05-26T08:05:12.730Z,1055.29
2019-05-26T08:06:12.736Z,1055.08
2019-05-26T08:07:12.724Z,1056.5
2019-05-26T08:08:13.656Z,1055.94
2019-05-26T08:09:12.759Z,1056.08
2019-05-26T08:10:12.749Z,1055.74
2019-05-26T08:11:12.773Z,1054.28
2019-05-26T08:12:25.328Z,1052.91
2019-05-26T08:13:12.742Z,1051.09
2019-05-26T08:14:12.754Z,1049.75
2019-05-26T08:15:12.737Z,1048.04
2019-05-26T08:16:12.763Z,1045.19
2019-05-26T08:17:12.748Z,1042
2019-05-26T08:18:12.762Z,1038.38
2019-05-26T08:19:12.764Z,1035.22
2019-05-26T08:20:12.797Z,1032.89
2019-05-26T08:21:12.781Z,1030.78
2019-05-26T08:22:12.768Z,1028.51
2019-05-26T08:23:12.788Z,1027.16
2019-05-26T08:24:12.758Z,1024.83
2019-05-26T08:25:12.766Z,1022.29
2019-05-26T08:26:13.177Z,1019.68
2019-05-26T08:27:12.842Z,1018.11
2019-05-26T08:28:15.779Z,1017
2019-05-26T08:29:12.774Z,1016.54
2019-05-26T08:30:12.788Z,1015.02
2019-05-26T08:31:13.490Z,1018.19
2019-05-26T08:32:15.015Z,1018.46
2019-05-26T08:33:12.779Z,1013.97
2019-05-26T08:34:12.783Z,1010.15
2019-05-26T08:35:12.795Z,1006.5
2019-05-26T08:36:12.782Z,1003.37
2019-05-26T08:37:12.785Z,1000.48
2019-05-26T08:38:12.811Z,997.82
2019-05-26T08:39:12.801Z,994.91
2019-05-26T08:40:12.813Z,992.69
2019-05-26T08:41:13.098Z,990.57
2019-05-26T08:42:26.205Z,989.64
2019-05-26T08:43:12.807Z,985.68
2019-05-26T08:44:13.203Z,983.41
2019-05-26T08:45:12.816Z,982.19
2019-05-26T08:46:12.822Z,983.48
2019-05-26T08:47:12.796Z,983.34
2019-05-26T08:48:12.818Z,983.4
2019-05-26T08:49:12.809Z,981.35
2019-05-26T08:50:12.828Z,978.98
2019-05-26T08:51:12.843Z,977
2019-05-26T08:52:12.831Z,975.25
2019-05-26T08:53:12.889Z,971.81
2019-05-26T08:54:12.843Z,967.74
2019-05-26T08:55:12.807Z,965.58
2019-05-26T08:56:12.814Z,964.38
2019-05-26T08:57:12.869Z,963.19
2019-05-26T08:58:13.019Z,963.63
2019-05-26T08:59:12.827Z,962.15
2019-05-26T09:00:12.850Z,958.6
2019-05-26T09:01:12.841Z,956.75
2019-05-26T09:02:12.847Z,955.47
2019-05-26T09:06:41.677Z,951.27
2019-05-26T09:07:41.637Z,947.43
2019-05-26T09:08:41.658Z,943.17
2019-05-26T09:09:41.645Z,938.83
2019-05-26T09:10:41.658Z,941.31
2019-05-26T09:11:41.644Z,944.88
2019-05-26T09:12:41.648Z,941.78
2019-05-26T09:13:42.005Z,945.79
2019-05-26T09:18:10.991Z,932.46
2019-05-26T09:19:10.968Z,931.16
2019-05-26T09:20:11.828Z,928.08
2019-05-26T09:21:10.987Z,927.07
2019-05-26T09:22:11.049Z,924.61
2019-05-26T09:23:11.019Z,920.45
2019-05-26T09:24:11.033Z,918.62
2019-05-26T09:25:11.013Z,916.26
2019-05-26T09:26:10.963Z,912.76
2019-05-26T09:27:10.981Z,910.35
2019-05-26T09:28:10.982Z,908.75
2019-05-26T09:29:11.434Z,907.38
2019-05-26T09:30:10.978Z,905.09
2019-05-26T09:31:10.988Z,901.76
2019-05-26T09:32:10.977Z,904.11
2019-05-26T09:33:11.291Z,900.22
2019-05-26T09:34:10.988Z,895.28
2019-05-26T09:35:10.994Z,895.75
2019-05-26T09:36:11.001Z,907.19
2019-05-26T09:37:11.001Z,918.87
2019-05-26T09:38:11.039Z,926.98
2019-05-26T09:39:11.015Z,925.02
2019-05-26T09:40:10.982Z,917.32
2019-05-26T09:41:11.297Z,921.44
2019-05-26T09:42:11.057Z,922.65
2019-05-26T09:43:15.907Z,918.26
2019-05-26T09:44:11.010Z,913.33
2019-05-26T09:45:11.012Z,910.31
2019-05-26T09:46:11.020Z,908.35
2019-05-26T09:47:11.013Z,914.51
2019-05-26T09:48:11.062Z,923.1
2019-05-26T09:49:11.019Z,928.45
2019-05-26T09:50:11.030Z,934.37
2019-05-26T09:51:11.040Z,940.39
2019-05-26T09:52:11.021Z,946.78
2019-05-26T09:53:11.014Z,951.52
2019-05-26T09:54:12.683Z,956.13
2019-05-26T09:55:11.017Z,959.7
2019-05-26T09:56:11.032Z,966.04
2019-05-26T09:57:11.026Z,971.27
2019-05-26T09:58:11.047Z,967.29
2019-05-26T09:59:11.061Z,967.9
2019-05-26T10:00:11.046Z,975.34
2019-05-26T10:01:11.075Z,982.45
2019-05-26T10:02:11.037Z,988.99
2019-05-26T10:03:11.066Z,994.67
2019-05-26T10:04:11.029Z,997.76
2019-05-26T10:05:11.053Z,992.11
2019-05-26T10:06:11.044Z,984.46
2019-05-26T10:07:14.987Z,977.49
2019-05-26T10:08:11.060Z,971.02
2019-05-26T10:09:11.059Z,965.92
2019-05-26T10:10:11.051Z,961.24
2019-05-26T10:11:11.072Z,956.49
2019-05-26T10:12:11.058Z,950.34
2019-05-26T10:13:11.067Z,944.32
2019-05-26T10:14:11.059Z,939.26
2019-05-26T10:15:11.100Z,934.22
2019-05-26T10:16:11.063Z,928.45
2019-05-26T10:17:26.786Z,922.41
2019-05-26T10:18:26.828Z,919.2
2019-05-26T10:19:26.771Z,917.68
2019-05-26T10:20:26.782Z,919.43
2019-05-26T10:21:26.990Z,914.34
2019-05-26T10:22:26.777Z,912.06
2019-05-26T10:23:26.783Z,907.98
2019-05-26T10:24:26.771Z,905.43
2019-05-26T10:25:26.801Z,904.15
2019-05-26T10:26:26.802Z,902.33
2019-05-26T10:27:26.789Z,900.02
2019-05-26T10:28:26.772Z,898.54
2019-05-26T10:29:26.789Z,897.48
2019-05-26T10:30:26.807Z,899.64
2019-05-26T10:31:27.057Z,898.78
2019-05-26T10:32:26.787Z,894.56
2019-05-26T10:33:26.810Z,892.71
2019-05-26T10:34:26.795Z,890.66
2019-05-26T10:35:26.787Z,889.47
2019-05-26T10:36:26.830Z,886.6
2019-05-26T10:37:26.791Z,886.16
2019-05-26T10:38:26.799Z,885.86
2019-05-26T10:39:26.805Z,883.78
2019-05-26T10:40:26.835Z,880.75
2019-05-26T10:41:26.800Z,876.99
2019-05-26T10:42:26.830Z,876.4
2019-05-26T10:43:26.858Z,877.93
2019-05-26T10:44:26.835Z,877.75
2019-05-26T10:45:26.823Z,876.71
2019-05-26T10:46:26.813Z,876
2019-05-26T10:47:26.835Z,873.1
2019-05-26T10:48:26.971Z,868.92
2019-05-26T10:49:26.832Z,864.8
2019-05-26T10:50:26.844Z,869.3
2019-05-26T10:51:26.871Z,871.28
2019-05-26T10:52:26.850Z,872.83
2019-05-26T10:53:26.846Z,872.55
2019-05-26T10:54:26.835Z,871.38
2019-05-26T10:55:26.902Z,870.18
2019-05-26T10:56:26.919Z,870.16
2019-05-26T10:57:26.905Z,867.38
2019-05-26T10:58:26.846Z,863.93
2019-05-26T10:59:26.835Z,860.32
2019-05-26T11:00:26.877Z,858.7
2019-05-26T11:01:26.860Z,856.93
2019-05-26T11:02:26.871Z,855.71
2019-05-26T11:03:26.875Z,854.18
2019-05-26T11:04:26.864Z,852.81
2019-05-26T11:05:26.851Z,851.05
2019-05-26T11:06:27.201Z,849.71
2019-05-26T11:07:27.022Z,850.09
2019-05-26T11:08:26.867Z,849.27
2019-05-26T11:09:26.856Z,846.9
2019-05-26T11:10:26.862Z,843.06
2019-05-26T11:11:26.872Z,843.32
2019-05-26T11:12:26.856Z,842.61
2019-05-26T11:13:26.859Z,843.85
2019-05-26T11:14:26.890Z,858.2
2019-05-26T11:15:26.877Z,858.69
2019-05-26T11:16:26.902Z,866.52
2019-05-26T11:17:26.871Z,877.44
2019-05-26T11:18:26.870Z,885.9
2019-05-26T11:19:26.879Z,893.35
2019-05-26T11:20:26.887Z,895.13
2019-05-26T11:21:26.877Z,885.79
2019-05-26T11:22:26.880Z,877.31
2019-05-26T11:23:26.886Z,883.75
2019-05-26T11:24:26.935Z,894.04
2019-05-26T11:25:26.880Z,902.55
2019-05-26T11:26:26.932Z,910.86
2019-05-26T11:27:26.913Z,919.17
2019-05-26T11:31:54.832Z,922.42
2019-05-26T11:32:54.815Z,911.75
2019-05-26T11:33:54.783Z,901.96
2019-05-26T11:35:01.387Z,894.44
2019-05-26T11:35:54.801Z,888.75
2019-05-26T11:36:54.804Z,885.13
2019-05-26T11:37:54.826Z,882.67
2019-05-26T11:38:54.796Z,879.58
2019-05-26T11:39:54.805Z,876.12
2019-05-26T11:40:54.900Z,871.34
2019-05-26T11:42:21.584Z,866.97
2019-05-26T11:43:21.551Z,864.02
2019-05-26T11:44:21.534Z,861.87
2019-05-26T11:45:21.541Z,866.39
2019-05-26T11:46:21.553Z,862.6
2019-05-26T11:47:21.581Z,859.03
2019-05-26T11:48:21.561Z,851.54
2019-05-26T11:49:21.645Z,845.37
2019-05-26T11:50:21.554Z,848.18
2019-05-26T11:51:21.588Z,858.63
2019-05-26T11:52:21.572Z,868.59
2019-05-26T11:53:21.578Z,872.57
2019-05-26T11:54:21.561Z,873.08
2019-05-26T11:55:21.590Z,867.43
2019-05-26T11:56:21.557Z,863.59
2019-05-26T11:57:21.637Z,859.05
2019-05-26T11:58:21.615Z,855.61
2019-05-26T11:59:21.576Z,853.2
2019-05-26T12:00:21.578Z,850.87
2019-05-26T12:01:22.913Z,848.65
2019-05-26T12:02:21.613Z,844.15
2019-05-26T12:03:21.569Z,839.44
2019-05-26T12:04:21.585Z,834.56
2019-05-26T12:05:21.625Z,828.2
2019-05-26T12:06:21.573Z,822.79
2019-05-26T12:07:21.596Z,827.03
2019-05-26T12:08:21.586Z,821.34
2019-05-26T12:09:21.610Z,816.78
2019-05-26T12:10:21.600Z,814.05
2019-05-26T12:11:21.606Z,810.45
2019-05-26T12:12:21.592Z,805.9
2019-05-26T12:13:21.619Z,802.27
2019-05-26T12:14:34.034Z,799.77
2019-05-26T12:15:21.615Z,798.43
2019-05-26T12:16:21.598Z,797.92
2019-05-26T12:17:21.661Z,810.68
2019-05-26T12:18:21.611Z,828.12
2019-05-26T12:19:21.601Z,839.33
2019-05-26T12:20:21.681Z,842.09
2019-05-26T12:21:21.638Z,837.1
2019-05-26T12:22:21.625Z,830.34
2019-05-26T12:23:21.625Z,825.14
2019-05-26T12:24:21.606Z,820.56
2019-05-26T12:25:21.634Z,817.71
2019-05-26T12:26:21.627Z,822.64
2019-05-26T12:27:21.663Z,823.64
2019-05-26T12:28:21.652Z,827.51
2019-05-26T12:29:21.639Z,840.91
2019-05-26T12:30:21.622Z,852.64
2019-05-26T12:31:21.635Z,857.22
2019-05-26T12:32:21.634Z,859.07
2019-05-26T12:33:21.652Z,853.43
2019-05-26T12:34:21.670Z,854.63
2019-05-26T12:35:21.639Z,864.43